createdAt,value
2022-09-18T00:04:13.671Z,25.49
2022-09-18T00:09:20.978Z,25.52
2022-09-18T00:14:28.009Z,25.56
2022-09-18T00:19:35.288Z,25.63
2022-09-18T00:24:43.465Z,25.74
2022-09-18T00:29:50.606Z,25.74
2022-09-18T00:34:57.859Z,25.79
2022-09-18T00:40:05.287Z,25.80
2022-09-18T00:45:12.326Z,25.81
2022-09-18T00:50:19.546Z,25.69
2022-09-18T00:55:26.883Z,25.64
2022-09-18T01:00:33.986Z,25.67
2022-09-18T01:05:41.246Z,25.65
2022-09-18T01:10:48.559Z,25.62
2022-09-18T01:15:56.790Z,25.55
2022-09-18T01:21:03.983Z,25.50
2022-09-18T01:26:11.302Z,25.49
2022-09-18T01:31:18.486Z,25.44
2022-09-18T01:36:25.692Z,25.41
2022-09-18T01:41:33.031Z,25.34
2022-09-18T01:46:40.274Z,25.31
2022-09-18T01:51:47.367Z,25.27
2022-09-18T01:56:54.743Z,25.25
2022-09-18T02:02:01.961Z,25.23
2022-09-18T02:07:09.056Z,25.24
2022-09-18T02:12:16.410Z,25.29
2022-09-18T02:17:24.487Z,25.32
2022-09-18T02:22:31.663Z,25.26
2022-09-18T02:27:39.225Z,25.22
2022-09-18T02:32:46.281Z,25.18
2022-09-18T02:37:53.480Z,25.16
2022-09-18T02:43:00.808Z,25.14
2022-09-18T02:48:07.945Z,25.13
2022-09-18T02:53:15.206Z,25.12
2022-09-18T02:58:22.539Z,25.05
2022-09-18T03:03:29.608Z,25.05
2022-09-18T03:08:36.787Z,25.06
2022-09-18T03:13:44.141Z,25.05
2022-09-18T03:18:51.316Z,25.10
2022-09-18T03:23:58.468Z,25.07
2022-09-18T03:29:05.895Z,25.09
2022-09-18T03:34:12.998Z,25.07
2022-09-18T03:39:20.266Z,25.08
2022-09-18T03:44:27.633Z,25.10
2022-09-18T03:49:34.762Z,25.03
2022-09-18T03:54:42.025Z,24.99
2022-09-18T03:59:49.385Z,24.96
2022-09-18T04:04:56.465Z,24.97
2022-09-18T04:10:03.676Z,24.93
2022-09-18T04:15:11.004Z,24.94
2022-09-18T04:20:18.092Z,24.96
2022-09-18T04:25:25.295Z,24.99
2022-09-18T04:30:32.633Z,24.99
2022-09-18T04:35:39.720Z,25.00
2022-09-18T04:40:46.898Z,24.99
2022-09-18T04:45:54.232Z,24.95
2022-09-18T04:51:01.325Z,25.01
2022-09-18T04:56:08.594Z,24.99
2022-09-18T05:01:16.045Z,24.96
2022-09-18T05:06:23.019Z,24.94
2022-09-18T05:11:30.238Z,24.94
2022-09-18T05:16:37.595Z,24.96
2022-09-18T05:21:44.733Z,24.98
2022-09-18T05:26:51.969Z,24.93
2022-09-18T05:31:59.317Z,24.93
2022-09-18T05:37:06.473Z,24.97
2022-09-18T05:42:13.678Z,24.96
2022-09-18T05:47:21.025Z,24.92
2022-09-18T05:52:28.130Z,24.89
2022-09-18T05:57:35.415Z,24.89
2022-09-18T06:02:42.755Z,24.91
2022-09-18T06:07:49.817Z,24.90
2022-09-18T06:12:56.975Z,24.91
2022-09-18T06:18:04.336Z,24.92
2022-09-18T06:23:11.423Z,24.92
2022-09-18T06:28:18.617Z,24.85
2022-09-18T06:33:25.944Z,24.90
2022-09-18T06:38:33.034Z,24.88
2022-09-18T06:43:40.254Z,24.87
2022-09-18T06:48:47.523Z,24.85
2022-09-18T06:53:54.692Z,24.86
2022-09-18T06:59:01.923Z,24.79
2022-09-18T07:04:09.270Z,24.80
2022-09-18T07:09:16.335Z,24.79
2022-09-18T07:14:23.576Z,24.80
2022-09-18T07:19:30.906Z,24.79
2022-09-18T07:24:38.025Z,24.80
2022-09-18T07:29:45.278Z,24.80
2022-09-18T07:34:52.615Z,24.85
2022-09-18T07:39:59.692Z,24.88
2022-09-18T07:45:06.864Z,24.88
2022-09-18T07:50:14.187Z,24.87
2022-09-18T07:55:21.271Z,24.92
2022-09-18T08:00:28.529Z,24.94
2022-09-18T08:05:35.887Z,24.98
2022-09-18T08:10:43.147Z,24.99
2022-09-18T08:15:50.377Z,25.01
2022-09-18T08:20:57.618Z,25.03
2022-09-18T08:26:04.788Z,25.04
2022-09-18T08:31:12.090Z,25.07
2022-09-18T08:36:19.573Z,25.08
2022-09-18T08:41:27.190Z,25.11
2022-09-18T08:46:34.959Z,25.10
2022-09-18T08:51:42.773Z,25.08
2022-09-18T08:56:50.324Z,25.13
2022-09-18T09:01:57.941Z,25.16
2022-09-18T09:07:05.193Z,25.19
2022-09-18T09:12:12.264Z,25.19
2022-09-18T09:17:19.550Z,25.20
2022-09-18T09:22:26.910Z,25.15
2022-09-18T09:27:34.019Z,25.16
2022-09-18T09:32:41.262Z,25.08
2022-09-18T09:37:48.555Z,25.08
2022-09-18T09:42:55.595Z,25.09
2022-09-18T09:48:02.782Z,25.01
2022-09-18T09:53:10.118Z,25.01
2022-09-18T09:58:17.198Z,25.03
2022-09-18T10:03:24.438Z,25.01
2022-09-18T10:08:31.728Z,25.03
2022-09-18T10:13:38.831Z,25.02
2022-09-18T10:18:46.002Z,24.92
2022-09-18T10:23:53.387Z,24.89
2022-09-18T10:29:00.421Z,24.86
2022-09-18T10:34:07.624Z,24.64
2022-09-18T10:39:15.008Z,24.77
2022-09-18T10:44:22.146Z,24.81
2022-09-18T10:49:29.639Z,24.85
2022-09-18T10:54:37.101Z,24.89
2022-09-18T10:59:44.173Z,24.93
2022-09-18T11:04:51.367Z,24.96
2022-09-18T11:09:58.692Z,24.95
2022-09-18T11:15:05.779Z,24.93
2022-09-18T11:20:12.985Z,24.95
2022-09-18T11:25:20.356Z,24.95
2022-09-18T11:30:27.509Z,24.94
2022-09-18T11:35:34.770Z,24.95
2022-09-18T11:40:42.227Z,24.94
2022-09-18T11:45:49.251Z,24.96
2022-09-18T11:50:56.502Z,24.94
2022-09-18T11:56:03.928Z,24.92
2022-09-18T12:01:11.102Z,24.91
2022-09-18T12:06:18.278Z,24.90
2022-09-18T12:11:24.270Z,24.90
2022-09-18T12:16:32.487Z,24.86
2022-09-18T12:21:39.634Z,24.86
2022-09-18T12:26:46.994Z,24.85
2022-09-18T12:31:54.373Z,24.83
2022-09-18T12:37:01.519Z,24.82
2022-09-18T12:42:09.498Z,24.85
2022-09-18T12:47:16.602Z,24.85
2022-09-18T12:52:27.096Z,24.88
2022-09-18T12:57:31.083Z,24.90
2022-09-18T13:02:38.214Z,24.89
2022-09-18T13:07:45.448Z,24.90
2022-09-18T13:12:52.771Z,24.88
2022-09-18T13:18:00.612Z,24.88
2022-09-18T13:23:07.820Z,24.87
2022-09-18T13:28:15.204Z,24.87
2022-09-18T13:33:22.226Z,24.85
2022-09-18T13:38:29.425Z,24.84
2022-09-18T13:43:36.728Z,24.82
2022-09-18T13:48:43.769Z,24.81
2022-09-18T13:53:51.001Z,24.79
2022-09-18T13:58:58.309Z,24.81
2022-09-18T14:04:05.442Z,24.78
2022-09-18T14:09:12.652Z,24.78
2022-09-18T14:14:19.971Z,24.77
2022-09-18T14:19:27.027Z,24.75
2022-09-18T14:24:36.196Z,24.74
2022-09-18T14:29:41.599Z,24.70
2022-09-18T14:34:48.705Z,24.68
2022-09-18T14:39:55.987Z,24.67
2022-09-18T14:45:03.207Z,24.64
2022-09-18T14:50:10.327Z,24.63
2022-09-18T14:55:17.551Z,24.61
2022-09-18T15:00:25.097Z,24.61
2022-09-18T15:05:32.012Z,24.59
2022-09-18T15:10:39.227Z,24.57
2022-09-18T15:15:46.544Z,24.56
2022-09-18T15:20:53.683Z,24.53
2022-09-18T15:26:01.004Z,24.51
2022-09-18T15:31:08.490Z,24.47
2022-09-18T15:36:15.483Z,24.49
2022-09-18T15:41:22.718Z,24.50
2022-09-18T15:46:30.083Z,24.51
2022-09-18T15:51:39.254Z,24.35
2022-09-18T15:56:46.546Z,24.28
2022-09-18T16:01:53.972Z,24.24
2022-09-18T16:07:00.973Z,24.37
2022-09-18T16:12:08.252Z,24.44
2022-09-18T16:17:15.579Z,24.50
2022-09-18T16:22:22.596Z,24.52
2022-09-18T16:27:29.776Z,24.56
2022-09-18T16:32:37.059Z,24.61
2022-09-18T16:37:44.165Z,24.57
2022-09-18T16:42:51.370Z,24.62
2022-09-18T16:48:00.647Z,24.65
2022-09-18T16:53:05.750Z,24.64
2022-09-18T16:58:12.990Z,24.67
2022-09-18T17:03:20.331Z,24.68
2022-09-18T17:08:27.611Z,24.51
2022-09-18T17:13:35.023Z,24.47
2022-09-18T17:18:42.638Z,24.15
2022-09-18T17:23:50.029Z,24.35
2022-09-18T17:28:57.580Z,24.48
2022-09-18T17:34:05.782Z,24.49
2022-09-18T17:39:13.075Z,24.42
2022-09-18T17:44:20.692Z,24.43
2022-09-18T17:49:28.423Z,24.39
2022-09-18T17:54:36.021Z,24.41
2022-09-18T17:59:43.646Z,24.39
2022-09-18T18:04:51.373Z,24.32
2022-09-18T18:09:58.607Z,24.38
2022-09-18T18:15:05.933Z,24.47
2022-09-18T18:20:13.286Z,24.49
2022-09-18T18:25:20.788Z,24.48
2022-09-18T18:30:28.143Z,24.55
2022-09-18T18:35:35.938Z,24.54
2022-09-18T18:40:45.269Z,24.51
2022-09-18T18:45:53.087Z,24.55
2022-09-18T18:51:04.743Z,24.57
2022-09-18T18:56:12.102Z,24.60
2022-09-18T19:01:19.874Z,24.53
2022-09-18T19:06:27.155Z,24.43
2022-09-18T19:11:34.543Z,24.23
2022-09-18T19:16:42.150Z,24.14
2022-09-18T19:21:49.893Z,24.15
2022-09-18T19:26:57.482Z,24.20
2022-09-18T19:32:05.100Z,24.04
2022-09-18T19:37:14.891Z,23.89
2022-09-18T19:42:19.565Z,23.80
2022-09-18T19:47:27.024Z,23.81
2022-09-18T19:52:34.389Z,23.64
2022-09-18T19:57:41.841Z,23.43
2022-09-18T20:02:49.148Z,23.21
2022-09-18T20:07:56.675Z,23.05
2022-09-18T20:13:03.910Z,22.91
2022-09-18T20:18:11.188Z,23.13
2022-09-18T20:23:18.535Z,23.44
2022-09-18T20:28:25.599Z,23.61
2022-09-18T20:33:32.796Z,23.75
2022-09-18T20:38:40.145Z,23.90
2022-09-18T20:43:47.279Z,24.03
2022-09-18T20:48:54.485Z,24.13
2022-09-18T20:54:01.809Z,24.25
2022-09-18T20:59:08.877Z,24.28
2022-09-18T21:04:16.163Z,24.41
2022-09-18T21:09:23.529Z,24.48
2022-09-18T21:14:30.664Z,24.49
2022-09-18T21:19:37.920Z,24.72
2022-09-18T21:24:45.269Z,24.84
2022-09-18T21:29:52.389Z,24.96
2022-09-18T21:34:59.630Z,25.11
2022-09-18T21:40:07.060Z,25.18
2022-09-18T21:45:14.118Z,25.11
2022-09-18T21:50:21.334Z,25.17
2022-09-18T21:55:28.754Z,25.28
2022-09-18T22:00:35.837Z,25.29
2022-09-18T22:05:42.955Z,25.33
2022-09-18T22:10:50.313Z,25.40
2022-09-18T22:15:57.474Z,25.45
2022-09-18T22:21:04.631Z,25.36
2022-09-18T22:26:11.986Z,25.36
2022-09-18T22:31:19.192Z,25.37
2022-09-18T22:36:26.252Z,25.37
2022-09-18T22:41:33.545Z,25.21
2022-09-18T22:46:40.766Z,25.29
2022-09-18T22:51:47.797Z,25.33
2022-09-18T22:56:55.259Z,25.36
2022-09-18T23:02:02.528Z,25.40
2022-09-18T23:07:09.616Z,25.47
2022-09-18T23:12:16.973Z,25.52
2022-09-18T23:17:24.034Z,25.45
2022-09-18T23:22:31.190Z,25.42
2022-09-18T23:27:38.510Z,25.39
2022-09-18T23:32:45.582Z,25.36
2022-09-18T23:37:52.780Z,25.31
2022-09-18T23:43:00.118Z,25.25
2022-09-18T23:48:07.393Z,25.21
2022-09-18T23:53:14.558Z,25.14
2022-09-18T23:58:21.938Z,25.02
